sensor_id;sensor_type;location;lat;lon;timestamp;temperature;humidity
25951;DHT22;13748;52.240;6.002;2022-09-09T00:02:29;16.60;99.90
25951;DHT22;13748;52.240;6.002;2022-09-09T00:07:48;16.60;99.90
25951;DHT22;13748;52.240;6.002;2022-09-09T00:10:30;16.60;99.90
25951;DHT22;13748;52.240;6.002;2022-09-09T00:18:45;16.50;99.90
25951;DHT22;13748;52.240;6.002;2022-09-09T00:21:18;16.40;99.90
25951;DHT22;13748;52.240;6.002;2022-09-09T00:23:53;16.50;99.90
25951;DHT22;13748;52.240;6.002;2022-09-09T00:26:48;16.50;99.90
25951;DHT22;13748;52.240;6.002;2022-09-09T00:30:38;16.50;99.90
25951;DHT22;13748;52.240;6.002;2022-09-09T00:32:36;16.50;99.90
25951;DHT22;13748;52.240;6.002;2022-09-09T00:35:18;16.40;99.90
25951;DHT22;13748;52.240;6.002;2022-09-09T00:38:08;16.40;99.90
25951;DHT22;13748;52.240;6.002;2022-09-09T00:41:04;16.40;99.90
25951;DHT22;13748;52.240;6.002;2022-09-09T00:43:36;16.30;99.90
25951;DHT22;13748;52.240;6.002;2022-09-09T00:49:20;16.20;99.90
25951;DHT22;13748;52.240;6.002;2022-09-09T00:55:20;16.20;99.90
25951;DHT22;13748;52.240;6.002;2022-09-09T00:57:53;16.10;99.90
25951;DHT22;13748;52.240;6.002;2022-09-09T01:00:43;16.10;99.90
25951;DHT22;13748;52.240;6.002;2022-09-09T01:03:35;16.10;99.90
25951;DHT22;13748;52.240;6.002;2022-09-09T01:09:13;16.10;99.90
25951;DHT22;13748;52.240;6.002;2022-09-09T01:18:16;16.10;99.90
25951;DHT22;13748;52.240;6.002;2022-09-09T01:20:52;16.10;99.90
25951;DHT22;13748;52.240;6.002;2022-09-09T01:29:21;16.10;99.90
25951;DHT22;13748;52.240;6.002;2022-09-09T01:32:40;16.10;99.90
25951;DHT22;13748;52.240;6.002;2022-09-09T01:37:50;16.00;99.90
25951;DHT22;13748;52.240;6.002;2022-09-09T01:40:18;16.00;99.90
25951;DHT22;13748;52.240;6.002;2022-09-09T01:42:56;16.00;99.90
25951;DHT22;13748;52.240;6.002;2022-09-09T01:45:27;15.90;99.90
25951;DHT22;13748;52.240;6.002;2022-09-09T01:47:58;15.90;99.90
25951;DHT22;13748;52.240;6.002;2022-09-09T01:50:33;15.80;99.90
25951;DHT22;13748;52.240;6.002;2022-09-09T01:53:06;15.80;99.90
25951;DHT22;13748;52.240;6.002;2022-09-09T01:55:42;15.80;99.90
25951;DHT22;13748;52.240;6.002;2022-09-09T01:58:42;15.70;99.90
25951;DHT22;13748;52.240;6.002;2022-09-09T02:01:20;15.70;99.90
25951;DHT22;13748;52.240;6.002;2022-09-09T02:03:56;15.60;99.90
25951;DHT22;13748;52.240;6.002;2022-09-09T02:06:35;15.60;99.90
25951;DHT22;13748;52.240;6.002;2022-09-09T02:09:10;15.50;99.90
25951;DHT22;13748;52.240;6.002;2022-09-09T02:11:39;15.60;99.90
25951;DHT22;13748;52.240;6.002;2022-09-09T02:14:12;15.50;99.90
25951;DHT22;13748;52.240;6.002;2022-09-09T02:16:50;15.50;99.90
25951;DHT22;13748;52.240;6.002;2022-09-09T02:19:35;15.50;99.90
25951;DHT22;13748;52.240;6.002;2022-09-09T02:22:09;15.30;99.90
25951;DHT22;13748;52.240;6.002;2022-09-09T02:24:40;15.50;99.90
25951;DHT22;13748;52.240;6.002;2022-09-09T02:27:09;15.40;99.90
25951;DHT22;13748;52.240;6.002;2022-09-09T02:29:42;15.40;99.90
25951;DHT22;13748;52.240;6.002;2022-09-09T02:32:19;15.40;99.90
25951;DHT22;13748;52.240;6.002;2022-09-09T02:35:00;15.40;99.90
25951;DHT22;13748;52.240;6.002;2022-09-09T02:37:38;15.30;99.90
25951;DHT22;13748;52.240;6.002;2022-09-09T02:40:10;15.30;99.90
25951;DHT22;13748;52.240;6.002;2022-09-09T02:42:46;15.30;99.90
25951;DHT22;13748;52.240;6.002;2022-09-09T02:45:24;15.20;99.90
25951;DHT22;13748;52.240;6.002;2022-09-09T02:51:21;15.20;99.90
25951;DHT22;13748;52.240;6.002;2022-09-09T02:54:12;15.20;99.90
25951;DHT22;13748;52.240;6.002;2022-09-09T02:56:51;15.10;99.90
25951;DHT22;13748;52.240;6.002;2022-09-09T02:59:30;15.10;99.90
25951;DHT22;13748;52.240;6.002;2022-09-09T03:02:04;15.10;99.90
25951;DHT22;13748;52.240;6.002;2022-09-09T03:04:34;15.10;99.90
25951;DHT22;13748;52.240;6.002;2022-09-09T03:07:04;15.10;99.90
25951;DHT22;13748;52.240;6.002;2022-09-09T03:09:34;15.00;99.90
25951;DHT22;13748;52.240;6.002;2022-09-09T03:12:05;15.00;99.90
25951;DHT22;13748;52.240;6.002;2022-09-09T03:14:38;15.00;99.90
25951;DHT22;13748;52.240;6.002;2022-09-09T03:17:13;15.00;99.90
25951;DHT22;13748;52.240;6.002;2022-09-09T03:19:42;14.90;99.90
25951;DHT22;13748;52.240;6.002;2022-09-09T03:22:11;15.00;99.90
25951;DHT22;13748;52.240;6.002;2022-09-09T03:24:44;15.00;99.90
25951;DHT22;13748;52.240;6.002;2022-09-09T03:27:25;14.90;99.90
25951;DHT22;13748;52.240;6.002;2022-09-09T03:29:58;14.90;99.90
25951;DHT22;13748;52.240;6.002;2022-09-09T03:32:28;14.80;99.90
25951;DHT22;13748;52.240;6.002;2022-09-09T03:35:01;14.80;99.90
25951;DHT22;13748;52.240;6.002;2022-09-09T03:37:29;14.70;99.90
25951;DHT22;13748;52.240;6.002;2022-09-09T03:39:57;14.70;99.90
25951;DHT22;13748;52.240;6.002;2022-09-09T03:42:24;14.80;99.90
25951;DHT22;13748;52.240;6.002;2022-09-09T03:44:58;14.80;99.90
25951;DHT22;13748;52.240;6.002;2022-09-09T03:47:41;14.70;99.90
25951;DHT22;13748;52.240;6.002;2022-09-09T03:50:09;14.70;99.90
25951;DHT22;13748;52.240;6.002;2022-09-09T03:53:06;14.70;99.90
25951;DHT22;13748;52.240;6.002;2022-09-09T03:55:49;14.70;99.90
25951;DHT22;13748;52.240;6.002;2022-09-09T03:58:17;14.60;99.90
25951;DHT22;13748;52.240;6.002;2022-09-09T04:01:02;14.60;99.90
25951;DHT22;13748;52.240;6.002;2022-09-09T04:03:29;14.60;99.90
25951;DHT22;13748;52.240;6.002;2022-09-09T04:06:07;14.60;99.90
25951;DHT22;13748;52.240;6.002;2022-09-09T04:08:39;14.60;99.90
25951;DHT22;13748;52.240;6.002;2022-09-09T04:11:11;14.60;99.90
25951;DHT22;13748;52.240;6.002;2022-09-09T04:13:49;14.60;99.90
25951;DHT22;13748;52.240;6.002;2022-09-09T04:16:19;14.60;99.90
25951;DHT22;13748;52.240;6.002;2022-09-09T04:18:50;14.60;99.90
25951;DHT22;13748;52.240;6.002;2022-09-09T04:21:17;14.60;99.90
25951;DHT22;13748;52.240;6.002;2022-09-09T04:23:44;14.60;99.90
25951;DHT22;13748;52.240;6.002;2022-09-09T04:26:18;14.60;99.90
25951;DHT22;13748;52.240;6.002;2022-09-09T04:28:49;14.70;99.90
25951;DHT22;13748;52.240;6.002;2022-09-09T04:31:20;14.60;99.90
25951;DHT22;13748;52.240;6.002;2022-09-09T04:33:50;14.70;99.90
25951;DHT22;13748;52.240;6.002;2022-09-09T04:36:22;14.70;99.90
25951;DHT22;13748;52.240;6.002;2022-09-09T04:38:50;14.70;99.90
25951;DHT22;13748;52.240;6.002;2022-09-09T04:41:22;14.70;99.90
25951;DHT22;13748;52.240;6.002;2022-09-09T04:43:50;14.70;99.90
25951;DHT22;13748;52.240;6.002;2022-09-09T04:46:24;14.70;99.90
25951;DHT22;13748;52.240;6.002;2022-09-09T04:48:54;14.80;99.90
25951;DHT22;13748;52.240;6.002;2022-09-09T04:51:30;14.80;99.90
25951;DHT22;13748;52.240;6.002;2022-09-09T04:53:58;14.80;99.90
25951;DHT22;13748;52.240;6.002;2022-09-09T04:56:34;14.80;99.90
25951;DHT22;13748;52.240;6.002;2022-09-09T04:59:06;14.80;99.90
25951;DHT22;13748;52.240;6.002;2022-09-09T05:01:36;14.70;99.90
25951;DHT22;13748;52.240;6.002;2022-09-09T05:04:13;14.70;99.90
25951;DHT22;13748;52.240;6.002;2022-09-09T05:06:49;14.70;99.90
25951;DHT22;13748;52.240;6.002;2022-09-09T05:09:21;14.70;99.90
25951;DHT22;13748;52.240;6.002;2022-09-09T05:11:56;14.80;99.90
25951;DHT22;13748;52.240;6.002;2022-09-09T05:14:28;14.80;99.90
25951;DHT22;13748;52.240;6.002;2022-09-09T05:17:37;14.80;99.90
25951;DHT22;13748;52.240;6.002;2022-09-09T05:20:29;14.70;99.90
25951;DHT22;13748;52.240;6.002;2022-09-09T05:23:06;14.80;99.90
25951;DHT22;13748;52.240;6.002;2022-09-09T05:25:37;14.80;99.90
25951;DHT22;13748;52.240;6.002;2022-09-09T05:28:17;14.80;99.90
25951;DHT22;13748;52.240;6.002;2022-09-09T05:31:03;14.80;99.90
25951;DHT22;13748;52.240;6.002;2022-09-09T05:34:15;14.90;99.90
25951;DHT22;13748;52.240;6.002;2022-09-09T05:37:16;14.90;99.90
25951;DHT22;13748;52.240;6.002;2022-09-09T05:39:56;14.80;99.90
25951;DHT22;13748;52.240;6.002;2022-09-09T05:42:49;14.80;99.90
25951;DHT22;13748;52.240;6.002;2022-09-09T05:45:43;14.90;99.90
25951;DHT22;13748;52.240;6.002;2022-09-09T05:48:15;14.80;99.90
25951;DHT22;13748;52.240;6.002;2022-09-09T05:50:42;14.90;99.90
25951;DHT22;13748;52.240;6.002;2022-09-09T05:53:22;14.90;99.90
25951;DHT22;13748;52.240;6.002;2022-09-09T05:56:00;15.00;99.90
25951;DHT22;13748;52.240;6.002;2022-09-09T05:58:37;15.00;99.90
25951;DHT22;13748;52.240;6.002;2022-09-09T06:04:24;15.10;99.90
25951;DHT22;13748;52.240;6.002;2022-09-09T06:07:11;15.20;99.90
25951;DHT22;13748;52.240;6.002;2022-09-09T06:10:11;15.30;99.90
25951;DHT22;13748;52.240;6.002;2022-09-09T06:12:51;15.30;99.90
25951;DHT22;13748;52.240;6.002;2022-09-09T06:15:32;15.30;99.90
25951;DHT22;13748;52.240;6.002;2022-09-09T06:18:03;15.40;99.90
25951;DHT22;13748;52.240;6.002;2022-09-09T06:20:52;15.40;99.90
25951;DHT22;13748;52.240;6.002;2022-09-09T06:23:50;15.40;99.90
25951;DHT22;13748;52.240;6.002;2022-09-09T06:26:44;15.40;99.90
25951;DHT22;13748;52.240;6.002;2022-09-09T06:29:19;15.50;99.90
25951;DHT22;13748;52.240;6.002;2022-09-09T06:32:13;15.50;99.90
25951;DHT22;13748;52.240;6.002;2022-09-09T06:35:31;15.60;99.90
25951;DHT22;13748;52.240;6.002;2022-09-09T06:37:58;15.60;99.90
25951;DHT22;13748;52.240;6.002;2022-09-09T06:40:25;15.60;99.90
25951;DHT22;13748;52.240;6.002;2022-09-09T06:42:53;15.80;99.90
25951;DHT22;13748;52.240;6.002;2022-09-09T06:45:22;15.90;99.90
25951;DHT22;13748;52.240;6.002;2022-09-09T06:47:49;16.00;99.90
25951;DHT22;13748;52.240;6.002;2022-09-09T06:50:16;16.20;99.90
25951;DHT22;13748;52.240;6.002;2022-09-09T06:52:46;16.40;99.90
25951;DHT22;13748;52.240;6.002;2022-09-09T06:55:14;16.60;99.90
25951;DHT22;13748;52.240;6.002;2022-09-09T06:57:45;16.70;99.90
25951;DHT22;13748;52.240;6.002;2022-09-09T07:00:12;16.80;99.90
25951;DHT22;13748;52.240;6.002;2022-09-09T07:02:43;16.90;99.90
25951;DHT22;13748;52.240;6.002;2022-09-09T07:05:10;17.20;99.90
25951;DHT22;13748;52.240;6.002;2022-09-09T07:07:37;17.70;99.90
25951;DHT22;13748;52.240;6.002;2022-09-09T07:10:05;18.20;99.90
25951;DHT22;13748;52.240;6.002;2022-09-09T07:12:32;18.20;99.90
25951;DHT22;13748;52.240;6.002;2022-09-09T07:14:59;18.30;99.90
25951;DHT22;13748;52.240;6.002;2022-09-09T07:17:27;18.50;99.90
25951;DHT22;13748;52.240;6.002;2022-09-09T07:19:54;18.70;99.90
25951;DHT22;13748;52.240;6.002;2022-09-09T07:22:22;19.10;99.90
25951;DHT22;13748;52.240;6.002;2022-09-09T07:24:49;19.50;99.90
25951;DHT22;13748;52.240;6.002;2022-09-09T07:27:16;19.80;99.90
25951;DHT22;13748;52.240;6.002;2022-09-09T07:29:43;20.00;99.90
25951;DHT22;13748;52.240;6.002;2022-09-09T07:32:12;20.10;99.90
25951;DHT22;13748;52.240;6.002;2022-09-09T07:34:39;19.90;99.90
25951;DHT22;13748;52.240;6.002;2022-09-09T07:37:06;19.80;99.90
25951;DHT22;13748;52.240;6.002;2022-09-09T07:39:33;19.70;99.90
25951;DHT22;13748;52.240;6.002;2022-09-09T07:42:00;19.60;99.90
25951;DHT22;13748;52.240;6.002;2022-09-09T07:44:30;19.60;99.90
25951;DHT22;13748;52.240;6.002;2022-09-09T07:46:58;19.50;99.90
25951;DHT22;13748;52.240;6.002;2022-09-09T07:49:26;19.50;99.90
25951;DHT22;13748;52.240;6.002;2022-09-09T07:51:58;19.50;99.90
25951;DHT22;13748;52.240;6.002;2022-09-09T07:54:25;19.50;99.90
25951;DHT22;13748;52.240;6.002;2022-09-09T07:56:53;19.60;99.90
25951;DHT22;13748;52.240;6.002;2022-09-09T07:59:20;19.60;99.90
25951;DHT22;13748;52.240;6.002;2022-09-09T08:01:50;19.60;99.90
25951;DHT22;13748;52.240;6.002;2022-09-09T08:04:21;19.70;99.90
25951;DHT22;13748;52.240;6.002;2022-09-09T08:06:54;19.70;99.90
25951;DHT22;13748;52.240;6.002;2022-09-09T08:09:21;19.70;99.90
25951;DHT22;13748;52.240;6.002;2022-09-09T08:11:51;19.70;99.90
25951;DHT22;13748;52.240;6.002;2022-09-09T08:14:18;19.70;99.90
25951;DHT22;13748;52.240;6.002;2022-09-09T08:16:47;19.90;99.90
25951;DHT22;13748;52.240;6.002;2022-09-09T08:19:14;20.00;99.90
25951;DHT22;13748;52.240;6.002;2022-09-09T08:21:45;20.10;99.90
25951;DHT22;13748;52.240;6.002;2022-09-09T08:24:13;20.00;99.90
25951;DHT22;13748;52.240;6.002;2022-09-09T08:26:46;19.90;99.90
25951;DHT22;13748;52.240;6.002;2022-09-09T08:29:16;19.80;99.90
25951;DHT22;13748;52.240;6.002;2022-09-09T08:34:12;19.60;99.90
25951;DHT22;13748;52.240;6.002;2022-09-09T08:36:44;19.50;99.90
25951;DHT22;13748;52.240;6.002;2022-09-09T08:39:14;19.50;99.90
25951;DHT22;13748;52.240;6.002;2022-09-09T08:47:45;19.90;99.90
25951;DHT22;13748;52.240;6.002;2022-09-09T08:50:13;20.00;99.90
25951;DHT22;13748;52.240;6.002;2022-09-09T08:58:27;20.20;99.90
25951;DHT22;13748;52.240;6.002;2022-09-09T09:03:56;20.00;99.90
25951;DHT22;13748;52.240;6.002;2022-09-09T09:09:16;19.80;99.90
25951;DHT22;13748;52.240;6.002;2022-09-09T09:11:57;19.60;99.90
25951;DHT22;13748;52.240;6.002;2022-09-09T09:14:29;19.50;99.90
25951;DHT22;13748;52.240;6.002;2022-09-09T09:17:04;19.30;99.90
25951;DHT22;13748;52.240;6.002;2022-09-09T09:19:34;19.30;99.90
25951;DHT22;13748;52.240;6.002;2022-09-09T09:22:17;19.20;99.90
25951;DHT22;13748;52.240;6.002;2022-09-09T09:24:53;19.20;99.90
25951;DHT22;13748;52.240;6.002;2022-09-09T09:27:36;19.20;99.90
25951;DHT22;13748;52.240;6.002;2022-09-09T09:30:19;19.20;99.90
25951;DHT22;13748;52.240;6.002;2022-09-09T09:35:22;19.40;99.90
25951;DHT22;13748;52.240;6.002;2022-09-09T09:37:50;19.40;99.90
25951;DHT22;13748;52.240;6.002;2022-09-09T09:40:37;19.40;99.90
25951;DHT22;13748;52.240;6.002;2022-09-09T09:43:20;19.30;99.90
25951;DHT22;13748;52.240;6.002;2022-09-09T09:45:49;19.40;99.90
25951;DHT22;13748;52.240;6.002;2022-09-09T09:48:36;19.40;99.90
25951;DHT22;13748;52.240;6.002;2022-09-09T09:51:09;19.50;99.90
25951;DHT22;13748;52.240;6.002;2022-09-09T09:53:38;19.60;99.90
25951;DHT22;13748;52.240;6.002;2022-09-09T09:56:07;19.70;99.90
25951;DHT22;13748;52.240;6.002;2022-09-09T10:01:05;19.90;99.90
25951;DHT22;13748;52.240;6.002;2022-09-09T10:03:35;20.00;99.90
25951;DHT22;13748;52.240;6.002;2022-09-09T10:06:07;20.00;99.90
25951;DHT22;13748;52.240;6.002;2022-09-09T10:08:44;20.10;99.90
25951;DHT22;13748;52.240;6.002;2022-09-09T10:11:35;20.10;99.90
25951;DHT22;13748;52.240;6.002;2022-09-09T10:14:20;20.00;99.90
25951;DHT22;13748;52.240;6.002;2022-09-09T10:19:37;19.90;99.90
25951;DHT22;13748;52.240;6.002;2022-09-09T10:22:26;19.80;99.90
25951;DHT22;13748;52.240;6.002;2022-09-09T10:25:25;19.70;99.90
25951;DHT22;13748;52.240;6.002;2022-09-09T10:37:16;20.90;99.90
25951;DHT22;13748;52.240;6.002;2022-09-09T10:40:08;21.00;99.90
25951;DHT22;13748;52.240;6.002;2022-09-09T10:42:42;21.00;99.90
25951;DHT22;13748;52.240;6.002;2022-09-09T10:45:31;21.00;99.90
25951;DHT22;13748;52.240;6.002;2022-09-09T10:48:38;21.00;99.90
25951;DHT22;13748;52.240;6.002;2022-09-09T10:56:33;20.50;99.90
25951;DHT22;13748;52.240;6.002;2022-09-09T10:59:16;20.30;99.90
25951;DHT22;13748;52.240;6.002;2022-09-09T11:04:43;20.10;99.90
25951;DHT22;13748;52.240;6.002;2022-09-09T11:07:15;20.00;99.90
25951;DHT22;13748;52.240;6.002;2022-09-09T11:09:50;19.90;99.90
25951;DHT22;13748;52.240;6.002;2022-09-09T11:12:23;19.70;99.90
25951;DHT22;13748;52.240;6.002;2022-09-09T11:17:50;19.90;99.90
25951;DHT22;13748;52.240;6.002;2022-09-09T11:20:19;20.00;99.90
25951;DHT22;13748;52.240;6.002;2022-09-09T11:25:47;20.20;99.90
25951;DHT22;13748;52.240;6.002;2022-09-09T11:31:28;20.20;99.90
25951;DHT22;13748;52.240;6.002;2022-09-09T11:42:26;20.40;99.90
25951;DHT22;13748;52.240;6.002;2022-09-09T11:44:53;20.50;99.90
25951;DHT22;13748;52.240;6.002;2022-09-09T11:47:27;20.60;99.90
25951;DHT22;13748;52.240;6.002;2022-09-09T11:50:31;20.70;99.90
25951;DHT22;13748;52.240;6.002;2022-09-09T11:55:33;20.80;99.90
25951;DHT22;13748;52.240;6.002;2022-09-09T11:58:06;20.70;99.90
25951;DHT22;13748;52.240;6.002;2022-09-09T12:00:47;20.50;99.90
25951;DHT22;13748;52.240;6.002;2022-09-09T12:03:44;20.20;99.90
25951;DHT22;13748;52.240;6.002;2022-09-09T12:06:32;20.10;99.90
25951;DHT22;13748;52.240;6.002;2022-09-09T12:09:21;20.10;99.90
25951;DHT22;13748;52.240;6.002;2022-09-09T12:11:50;20.20;99.90
25951;DHT22;13748;52.240;6.002;2022-09-09T12:14:38;20.40;99.90
25951;DHT22;13748;52.240;6.002;2022-09-09T12:19:41;20.80;99.90
25951;DHT22;13748;52.240;6.002;2022-09-09T12:22:17;20.90;99.90
25951;DHT22;13748;52.240;6.002;2022-09-09T12:27:36;21.00;99.90
25951;DHT22;13748;52.240;6.002;2022-09-09T12:30:17;21.10;99.90
25951;DHT22;13748;52.240;6.002;2022-09-09T12:32:44;20.90;99.90
25951;DHT22;13748;52.240;6.002;2022-09-09T12:35:21;20.80;99.90
25951;DHT22;13748;52.240;6.002;2022-09-09T12:38:21;20.70;99.90
25951;DHT22;13748;52.240;6.002;2022-09-09T12:40:57;20.60;99.90
25951;DHT22;13748;52.240;6.002;2022-09-09T12:43:26;20.50;99.90
25951;DHT22;13748;52.240;6.002;2022-09-09T12:46:03;20.50;99.90
25951;DHT22;13748;52.240;6.002;2022-09-09T12:48:38;20.60;99.90
25951;DHT22;13748;52.240;6.002;2022-09-09T12:51:21;20.50;99.90
25951;DHT22;13748;52.240;6.002;2022-09-09T12:53:51;20.50;99.90
25951;DHT22;13748;52.240;6.002;2022-09-09T12:56:32;20.50;99.90
25951;DHT22;13748;52.240;6.002;2022-09-09T12:59:00;20.60;99.90
25951;DHT22;13748;52.240;6.002;2022-09-09T13:01:32;20.60;99.90
25951;DHT22;13748;52.240;6.002;2022-09-09T13:04:02;20.70;99.90
25951;DHT22;13748;52.240;6.002;2022-09-09T13:06:32;20.60;99.90
25951;DHT22;13748;52.240;6.002;2022-09-09T13:09:00;20.60;99.90
25951;DHT22;13748;52.240;6.002;2022-09-09T13:11:36;20.70;99.90
25951;DHT22;13748;52.240;6.002;2022-09-09T13:14:05;20.90;99.90
25951;DHT22;13748;52.240;6.002;2022-09-09T13:16:34;20.90;99.90
25951;DHT22;13748;52.240;6.002;2022-09-09T13:19:15;21.00;99.90
25951;DHT22;13748;52.240;6.002;2022-09-09T13:21:43;21.10;99.90
25951;DHT22;13748;52.240;6.002;2022-09-09T13:24:32;21.20;99.90
25951;DHT22;13748;52.240;6.002;2022-09-09T13:27:01;21.20;99.90
25951;DHT22;13748;52.240;6.002;2022-09-09T13:29:31;21.10;99.90
25951;DHT22;13748;52.240;6.002;2022-09-09T13:32:05;21.10;99.90
25951;DHT22;13748;52.240;6.002;2022-09-09T13:34:35;21.10;99.90
25951;DHT22;13748;52.240;6.002;2022-09-09T13:37:05;21.30;99.90
25951;DHT22;13748;52.240;6.002;2022-09-09T13:39:34;21.20;99.90
25951;DHT22;13748;52.240;6.002;2022-09-09T13:42:03;21.20;99.90
25951;DHT22;13748;52.240;6.002;2022-09-09T13:44:34;21.10;99.90
25951;DHT22;13748;52.240;6.002;2022-09-09T13:49:36;21.00;99.90
25951;DHT22;13748;52.240;6.002;2022-09-09T13:52:10;20.90;99.90
25951;DHT22;13748;52.240;6.002;2022-09-09T13:54:38;20.80;99.90
25951;DHT22;13748;52.240;6.002;2022-09-09T13:57:21;20.70;99.90
25951;DHT22;13748;52.240;6.002;2022-09-09T13:59:48;20.50;99.90
25951;DHT22;13748;52.240;6.002;2022-09-09T14:02:32;20.40;99.90
25951;DHT22;13748;52.240;6.002;2022-09-09T14:05:00;20.40;99.90
25951;DHT22;13748;52.240;6.002;2022-09-09T14:07:27;20.40;99.90
25951;DHT22;13748;52.240;6.002;2022-09-09T14:09:54;20.40;99.90
25951;DHT22;13748;52.240;6.002;2022-09-09T14:12:21;20.40;99.90
25951;DHT22;13748;52.240;6.002;2022-09-09T14:14:48;20.40;99.90
25951;DHT22;13748;52.240;6.002;2022-09-09T14:17:16;20.40;99.90
25951;DHT22;13748;52.240;6.002;2022-09-09T14:19:43;20.30;99.90
25951;DHT22;13748;52.240;6.002;2022-09-09T14:22:12;20.20;99.90
25951;DHT22;13748;52.240;6.002;2022-09-09T14:24:39;20.30;99.90
25951;DHT22;13748;52.240;6.002;2022-09-09T14:27:08;20.30;99.90
25951;DHT22;13748;52.240;6.002;2022-09-09T14:29:35;20.40;99.90
25951;DHT22;13748;52.240;6.002;2022-09-09T14:32:02;20.40;99.90
25951;DHT22;13748;52.240;6.002;2022-09-09T14:34:29;20.40;99.90
25951;DHT22;13748;52.240;6.002;2022-09-09T14:36:56;20.50;99.90
25951;DHT22;13748;52.240;6.002;2022-09-09T14:39:23;20.50;99.90
25951;DHT22;13748;52.240;6.002;2022-09-09T14:41:53;20.70;99.90
25951;DHT22;13748;52.240;6.002;2022-09-09T14:44:19;20.80;99.90
25951;DHT22;13748;52.240;6.002;2022-09-09T14:46:46;20.90;99.90
25951;DHT22;13748;52.240;6.002;2022-09-09T14:49:13;20.90;99.90
25951;DHT22;13748;52.240;6.002;2022-09-09T14:51:40;21.00;99.90
25951;DHT22;13748;52.240;6.002;2022-09-09T14:54:06;21.00;99.90
25951;DHT22;13748;52.240;6.002;2022-09-09T14:56:34;21.00;99.90
25951;DHT22;13748;52.240;6.002;2022-09-09T14:59:02;21.00;99.90
25951;DHT22;13748;52.240;6.002;2022-09-09T15:01:30;20.90;99.90
25951;DHT22;13748;52.240;6.002;2022-09-09T15:04:00;21.00;99.90
25951;DHT22;13748;52.240;6.002;2022-09-09T15:06:29;21.00;99.90
25951;DHT22;13748;52.240;6.002;2022-09-09T15:08:57;21.00;99.90
25951;DHT22;13748;52.240;6.002;2022-09-09T15:11:33;21.10;99.90
25951;DHT22;13748;52.240;6.002;2022-09-09T15:14:01;21.20;99.90
25951;DHT22;13748;52.240;6.002;2022-09-09T15:16:28;21.20;99.90
25951;DHT22;13748;52.240;6.002;2022-09-09T15:18:57;21.30;99.90
25951;DHT22;13748;52.240;6.002;2022-09-09T15:21:29;21.30;99.90
25951;DHT22;13748;52.240;6.002;2022-09-09T15:23:57;21.20;99.90
25951;DHT22;13748;52.240;6.002;2022-09-09T15:26:25;21.20;99.90
25951;DHT22;13748;52.240;6.002;2022-09-09T15:28:52;21.20;99.90
25951;DHT22;13748;52.240;6.002;2022-09-09T15:31:25;21.30;99.90
25951;DHT22;13748;52.240;6.002;2022-09-09T15:34:06;21.20;99.90
25951;DHT22;13748;52.240;6.002;2022-09-09T15:36:43;21.20;99.90
25951;DHT22;13748;52.240;6.002;2022-09-09T15:39:14;21.20;99.90
25951;DHT22;13748;52.240;6.002;2022-09-09T15:41:46;21.10;99.90
25951;DHT22;13748;52.240;6.002;2022-09-09T15:44:14;21.10;99.90
25951;DHT22;13748;52.240;6.002;2022-09-09T15:46:48;21.10;99.90
25951;DHT22;13748;52.240;6.002;2022-09-09T15:49:25;20.90;99.90
25951;DHT22;13748;52.240;6.002;2022-09-09T15:51:57;20.90;99.90
25951;DHT22;13748;52.240;6.002;2022-09-09T15:54:25;20.80;99.90
25951;DHT22;13748;52.240;6.002;2022-09-09T15:56:58;20.70;99.90
25951;DHT22;13748;52.240;6.002;2022-09-09T15:59:28;20.70;99.90
25951;DHT22;13748;52.240;6.002;2022-09-09T16:01:55;20.70;99.90
25951;DHT22;13748;52.240;6.002;2022-09-09T16:04:24;20.60;99.90
25951;DHT22;13748;52.240;6.002;2022-09-09T16:06:57;20.60;99.90
25951;DHT22;13748;52.240;6.002;2022-09-09T16:09:26;20.70;99.90
25951;DHT22;13748;52.240;6.002;2022-09-09T16:11:56;20.70;99.90
25951;DHT22;13748;52.240;6.002;2022-09-09T16:14:23;20.80;99.90
25951;DHT22;13748;52.240;6.002;2022-09-09T16:16:51;20.80;99.90
25951;DHT22;13748;52.240;6.002;2022-09-09T16:19:19;20.80;99.90
25951;DHT22;13748;52.240;6.002;2022-09-09T16:21:48;20.80;99.90
25951;DHT22;13748;52.240;6.002;2022-09-09T16:24:17;20.80;99.90
25951;DHT22;13748;52.240;6.002;2022-09-09T16:26:47;20.90;99.90
25951;DHT22;13748;52.240;6.002;2022-09-09T16:29:15;20.80;99.90
25951;DHT22;13748;52.240;6.002;2022-09-09T16:31:44;20.70;99.90
25951;DHT22;13748;52.240;6.002;2022-09-09T16:34:12;20.60;99.90
25951;DHT22;13748;52.240;6.002;2022-09-09T16:36:40;20.60;99.90
25951;DHT22;13748;52.240;6.002;2022-09-09T16:39:13;20.60;99.90
25951;DHT22;13748;52.240;6.002;2022-09-09T16:41:41;20.60;99.90
25951;DHT22;13748;52.240;6.002;2022-09-09T16:44:10;20.60;99.90
25951;DHT22;13748;52.240;6.002;2022-09-09T16:46:39;20.40;99.90
25951;DHT22;13748;52.240;6.002;2022-09-09T16:49:09;20.40;99.90
25951;DHT22;13748;52.240;6.002;2022-09-09T16:51:48;20.30;99.90
25951;DHT22;13748;52.240;6.002;2022-09-09T16:54:16;20.40;99.90
25951;DHT22;13748;52.240;6.002;2022-09-09T16:56:45;20.40;99.90
25951;DHT22;13748;52.240;6.002;2022-09-09T16:59:14;20.30;99.90
25951;DHT22;13748;52.240;6.002;2022-09-09T17:01:43;20.40;99.90
25951;DHT22;13748;52.240;6.002;2022-09-09T17:04:16;20.40;99.90
25951;DHT22;13748;52.240;6.002;2022-09-09T17:06:48;20.40;99.90
25951;DHT22;13748;52.240;6.002;2022-09-09T17:09:19;20.30;99.90
25951;DHT22;13748;52.240;6.002;2022-09-09T17:11:47;20.30;99.90
25951;DHT22;13748;52.240;6.002;2022-09-09T17:14:16;20.30;99.90
25951;DHT22;13748;52.240;6.002;2022-09-09T17:16:44;20.40;99.90
25951;DHT22;13748;52.240;6.002;2022-09-09T17:19:12;20.10;99.90
25951;DHT22;13748;52.240;6.002;2022-09-09T17:21:39;20.20;99.90
25951;DHT22;13748;52.240;6.002;2022-09-09T17:24:27;20.10;99.90
25951;DHT22;13748;52.240;6.002;2022-09-09T17:26:56;20.10;99.90
25951;DHT22;13748;52.240;6.002;2022-09-09T17:29:24;20.00;99.90
25951;DHT22;13748;52.240;6.002;2022-09-09T17:31:51;20.00;99.90
25951;DHT22;13748;52.240;6.002;2022-09-09T17:34:18;20.00;99.90
25951;DHT22;13748;52.240;6.002;2022-09-09T17:36:45;19.90;99.90
25951;DHT22;13748;52.240;6.002;2022-09-09T17:39:12;19.80;99.90
25951;DHT22;13748;52.240;6.002;2022-09-09T17:41:39;19.80;99.90
25951;DHT22;13748;52.240;6.002;2022-09-09T17:44:07;19.70;99.90
25951;DHT22;13748;52.240;6.002;2022-09-09T17:46:41;19.60;99.90
25951;DHT22;13748;52.240;6.002;2022-09-09T17:49:10;19.50;99.90
25951;DHT22;13748;52.240;6.002;2022-09-09T17:51:38;19.50;99.90
25951;DHT22;13748;52.240;6.002;2022-09-09T17:54:16;19.40;99.90
25951;DHT22;13748;52.240;6.002;2022-09-09T17:56:44;19.30;99.90
25951;DHT22;13748;52.240;6.002;2022-09-09T17:59:13;19.30;99.90
25951;DHT22;13748;52.240;6.002;2022-09-09T18:01:43;19.30;99.90
25951;DHT22;13748;52.240;6.002;2022-09-09T18:04:12;19.20;99.90
25951;DHT22;13748;52.240;6.002;2022-09-09T18:06:43;19.10;99.90